Time;durP1;ratioP1;P1;durP2;ratioP2;P2;SDS_P1;SDS_P2;PMS_P1;PMS_P2;Temp;Humidity;BMP_temperature;BMP_pressure;BME280_temperature;BME280_humidity;BME280_pressure;Samples;Min_cycle;Max_cycle;Signal;HPM_P1;HPM_P2
2023/08/22 00:00:27;;;;;;;6.38;3.38;;;19.00;95.80;;;;;;5019217;28;86657;-78
2023/08/22 00:02:53;;;;;;;4.70;3.38;;;19.00;95.90;;;;;;5001798;28;87180;-79
2023/08/22 00:05:19;;;;;;;9.73;3.72;;;19.00;95.80;;;;;;5019675;28;86726;-78
2023/08/22 00:07:44;;;;;;;7.20;3.38;;;19.00;95.90;;;;;;5019299;28;87395;-78
2023/08/22 00:10:10;;;;;;;3.80;3.22;;;18.90;95.80;;;;;;5018909;28;87499;-79
2023/08/22 00:12:36;;;;;;;10.70;3.83;;;18.90;95.70;;;;;;5019589;28;86356;-79
2023/08/22 00:15:05;;;;;;;5.55;3.50;;;18.90;96.00;;;;;;5020400;28;86073;-79
2023/08/22 00:17:31;;;;;;;5.28;3.38;;;18.80;95.80;;;;;;5000377;28;89187;-78
2023/08/22 00:19:56;;;;;;;6.30;3.72;;;18.80;95.90;;;;;;5017933;28;87019;-79
2023/08/22 00:22:22;;;;;;;6.30;2.90;;;18.80;95.80;;;;;;5019622;28;86127;-79
2023/08/22 00:24:48;;;;;;;7.53;3.15;;;18.70;95.90;;;;;;5019179;28;85861;-78
2023/08/22 00:27:15;;;;;;;6.20;3.00;;;18.70;95.90;;;;;;5019755;28;87564;-79
2023/08/22 00:29:40;;;;;;;4.72;3.15;;;18.60;96.10;;;;;;5020302;28;86819;-79
2023/08/22 00:32:06;;;;;;;10.20;3.45;;;18.60;96.20;;;;;;5019116;28;86587;-79
2023/08/22 00:34:32;;;;;;;6.30;3.20;;;18.50;96.40;;;;;;5016565;28;87115;-79
2023/08/22 00:36:57;;;;;;;4.15;3.10;;;18.50;96.60;;;;;;5017289;28;90356;-78
2023/08/22 00:39:24;;;;;;;6.30;3.25;;;18.40;96.50;;;;;;5017191;28;88688;-78
2023/08/22 00:41:50;;;;;;;6.00;2.58;;;18.40;96.50;;;;;;5019605;28;86183;-79
2023/08/22 00:44:15;;;;;;;8.80;3.28;;;18.30;96.60;;;;;;5017269;28;86595;-78
2023/08/22 00:46:41;;;;;;;7.13;3.35;;;18.30;96.70;;;;;;5018768;28;87363;-79
2023/08/22 00:49:08;;;;;;;5.55;2.88;;;18.30;96.90;;;;;;5018607;28;86840;-78
2023/08/22 00:51:36;;;;;;;4.65;3.10;;;18.20;96.70;;;;;;5018653;28;86288;-78
2023/08/22 00:54:02;;;;;;;5.32;3.28;;;18.20;96.90;;;;;;5019994;28;86201;-78
2023/08/22 00:56:29;;;;;;;7.13;2.97;;;18.20;96.80;;;;;;5000128;28;88799;-78
2023/08/22 00:58:56;;;;;;;4.95;3.10;;;18.10;96.90;;;;;;4999665;28;90257;-78
2023/08/22 01:01:21;;;;;;;13.90;3.40;;;18.10;96.90;;;;;;5000395;28;86304;-79
2023/08/22 01:03:47;;;;;;;8.05;3.47;;;18.00;96.90;;;;;;5018931;28;86647;-78
2023/08/22 01:06:45;;;;;;;8.02;3.20;;;18.00;97.20;;;;;;5019038;28;88178;-78
2023/08/22 01:09:25;;;;;;;6.20;3.50;;;18.00;97.20;;;;;;4988138;28;87923;-79
2023/08/22 01:11:56;;;;;;;4.43;3.22;;;17.90;97.30;;;;;;5017537;28;86631;-79
2023/08/22 01:14:25;;;;;;;10.07;4.95;;;17.90;97.30;;;;;;5000277;28;86063;-78
2023/08/22 01:16:51;;;;;;;7.60;3.83;;;17.90;97.70;;;;;;5018261;28;87552;-78
2023/08/22 01:19:18;;;;;;;5.75;3.55;;;17.80;97.50;;;;;;4999120;28;89876;-79
2023/08/22 01:21:53;;;;;;;7.30;4.03;;;17.80;97.60;;;;;;4998900;28;86819;-79
2023/08/22 01:24:19;;;;;;;6.18;3.60;;;17.80;98.10;;;;;;5018717;28;86141;-78
2023/08/22 01:26:46;;;;;;;5.15;3.53;;;17.70;98.00;;;;;;5017333;28;89329;-79
2023/08/22 01:29:31;;;;;;;8.02;4.32;;;17.70;97.90;;;;;;5017231;28;86961;-78
2023/08/22 01:32:05;;;;;;;7.50;3.85;;;17.70;98.20;;;;;;5016018;28;86733;-78
2023/08/22 01:34:34;;;;;;;7.53;4.13;;;17.70;98.00;;;;;;5017928;28;86516;-79
2023/08/22 01:37:01;;;;;;;6.53;3.38;;;17.70;97.90;;;;;;5017343;28;87037;-78
2023/08/22 01:39:28;;;;;;;7.03;3.92;;;17.60;97.70;;;;;;5018070;28;86616;-78
2023/08/22 01:41:56;;;;;;;6.78;3.53;;;17.60;97.70;;;;;;4998576;28;87510;-78
2023/08/22 01:44:23;;;;;;;7.78;3.80;;;17.60;97.70;;;;;;4999047;28;86890;-79
2023/08/22 01:46:50;;;;;;;7.15;3.90;;;17.60;97.80;;;;;;4999363;28;89248;-78
2023/08/22 01:49:15;;;;;;;6.40;3.13;;;17.50;97.80;;;;;;4999182;28;88824;-78
2023/08/22 01:51:41;;;;;;;6.80;3.60;;;17.50;97.80;;;;;;4999193;28;86500;-79
2023/08/22 01:54:07;;;;;;;5.22;3.80;;;17.40;97.70;;;;;;5019032;28;86516;-78
2023/08/22 01:56:33;;;;;;;5.00;3.50;;;17.40;97.70;;;;;;5016864;28;87243;-78
2023/08/22 01:58:58;;;;;;;5.72;3.50;;;17.40;97.70;;;;;;5017511;28;86868;-78
2023/08/22 02:01:24;;;;;;;5.88;3.00;;;17.30;97.70;;;;;;5018012;28;86678;-78
2023/08/22 02:03:50;;;;;;;4.22;2.70;;;17.30;97.60;;;;;;5017401;28;86370;-79
2023/08/22 02:06:16;;;;;;;5.30;3.75;;;17.30;97.70;;;;;;5017533;28;86549;-78
2023/08/22 02:08:42;;;;;;;8.27;4.00;;;17.30;98.10;;;;;;4999844;28;89611;-79
2023/08/22 02:11:08;;;;;;;6.00;3.83;;;17.20;98.00;;;;;;5017474;28;86091;-79
2023/08/22 02:13:33;;;;;;;6.45;3.67;;;17.20;98.00;;;;;;5017712;28;86171;-78
2023/08/22 02:16:00;;;;;;;5.97;4.32;;;17.20;98.30;;;;;;4998599;28;90527;-79
2023/08/22 02:18:26;;;;;;;9.00;4.25;;;17.20;98.20;;;;;;4998817;28;90448;-78
2023/08/22 02:20:53;;;;;;;8.80;4.28;;;17.10;98.40;;;;;;5016537;28;86265;-79
2023/08/22 02:23:19;;;;;;;11.98;4.10;;;17.10;98.40;;;;;;5016826;28;86362;-79
2023/08/22 02:25:46;;;;;;;5.65;4.05;;;17.10;98.40;;;;;;4998090;28;91502;-78
2023/08/22 02:28:12;;;;;;;7.65;4.53;;;17.00;98.40;;;;;;5016162;28;86679;-78
2023/08/22 02:30:37;;;;;;;8.00;4.30;;;17.00;98.40;;;;;;5016784;28;86409;-79
2023/08/22 02:33:04;;;;;;;7.90;4.50;;;17.00;98.40;;;;;;5018071;28;86416;-78
2023/08/22 02:35:29;;;;;;;7.25;4.35;;;16.90;98.50;;;;;;5016698;28;87894;-78
2023/08/22 02:37:55;;;;;;;5.60;4.38;;;16.90;98.50;;;;;;5017198;28;86897;-78
2023/08/22 02:40:20;;;;;;;7.45;4.55;;;16.90;98.50;;;;;;5016707;28;86534;-78
2023/08/22 02:42:46;;;;;;;11.30;4.15;;;16.80;98.40;;;;;;5017294;28;86142;-79
2023/08/22 02:45:12;;;;;;;6.60;3.63;;;16.80;98.50;;;;;;5015463;28;89293;-78
2023/08/22 02:47:37;;;;;;;9.55;4.03;;;16.80;98.70;;;;;;5017208;28;86572;-78
2023/08/22 02:50:04;;;;;;;7.22;3.33;;;16.80;98.70;;;;;;4998379;28;86618;-78
2023/08/22 02:52:31;;;;;;;8.48;4.53;;;16.80;98.60;;;;;;5015370;28;86854;-79
2023/08/22 02:54:57;;;;;;;6.40;3.75;;;16.70;98.80;;;;;;5020482;28;87424;-79
2023/08/22 02:57:22;;;;;;;6.05;3.42;;;16.60;98.80;;;;;;5020474;28;86805;-78
2023/08/22 02:59:48;;;;;;;3.45;2.97;;;16.60;98.60;;;;;;5020894;28;86399;-78
2023/08/22 03:02:14;;;;;;;6.22;3.40;;;16.60;98.60;;;;;;5020259;28;88930;-79
2023/08/22 03:04:39;;;;;;;4.00;3.33;;;16.60;98.60;;;;;;5020424;28;87407;-78
2023/08/22 03:07:05;;;;;;;6.95;3.40;;;16.60;98.60;;;;;;5018805;28;89197;-79
2023/08/22 03:09:32;;;;;;;7.15;4.05;;;16.50;98.50;;;;;;5017393;28;89782;-78
2023/08/22 03:11:58;;;;;;;6.97;4.40;;;16.50;98.70;;;;;;5019646;28;87450;-78
2023/08/22 03:14:25;;;;;;;7.03;3.88;;;16.50;98.80;;;;;;5018346;28;88012;-78
2023/08/22 03:16:50;;;;;;;8.63;3.80;;;16.50;98.90;;;;;;5018588;28;89280;-78
2023/08/22 03:19:16;;;;;;;6.13;3.88;;;16.40;98.90;;;;;;5017852;28;90118;-78
2023/08/22 03:21:42;;;;;;;7.50;3.78;;;16.40;98.90;;;;;;5018187;28;87418;-78
2023/08/22 03:24:07;;;;;;;6.40;3.33;;;16.40;98.70;;;;;;5018672;28;88320;-79
2023/08/22 03:26:33;;;;;;;6.88;3.55;;;16.30;98.70;;;;;;5018053;28;87957;-79
2023/08/22 03:28:59;;;;;;;6.18;3.30;;;16.30;98.80;;;;;;4999635;28;91180;-78
2023/08/22 03:31:27;;;;;;;6.30;3.50;;;16.30;98.90;;;;;;5018340;28;88689;-78
2023/08/22 03:33:54;;;;;;;8.45;3.80;;;16.30;98.80;;;;;;5017481;28;87991;-79
2023/08/22 03:36:20;;;;;;;7.15;3.60;;;16.20;98.80;;;;;;5018365;28;88648;-78
2023/08/22 03:38:48;;;;;;;7.15;3.72;;;16.20;98.90;;;;;;5019016;28;89397;-79
2023/08/22 03:41:14;;;;;;;8.68;3.60;;;16.20;99.00;;;;;;5015205;28;88713;-78
2023/08/22 03:43:40;;;;;;;12.07;4.90;;;16.20;99.10;;;;;;5017808;28;88034;-78
2023/08/22 03:46:05;;;;;;;7.35;3.47;;;16.20;99.20;;;;;;5017256;28;89241;-78
2023/08/22 03:48:31;;;;;;;8.43;3.78;;;16.10;99.10;;;;;;5016374;28;90605;-78
2023/08/22 03:50:57;;;;;;;8.52;4.05;;;16.10;99.10;;;;;;5018745;28;87764;-78
2023/08/22 03:53:22;;;;;;;5.55;3.25;;;16.10;99.10;;;;;;5018113;28;87667;-79
2023/08/22 03:55:48;;;;;;;4.13;3.58;;;16.10;99.10;;;;;;5017579;28;88558;-78
2023/08/22 03:58:14;;;;;;;5.75;3.80;;;16.00;99.20;;;;;;5018233;28;88261;-78
2023/08/22 04:00:40;;;;;;;5.38;3.30;;;16.00;99.10;;;;;;4999654;28;87710;-78
2023/08/22 04:03:05;;;;;;;7.63;3.35;;;16.00;99.00;;;;;;4999583;28;90384;-78
2023/08/22 04:05:31;;;;;;;4.63;3.40;;;16.00;99.10;;;;;;5014302;28;92692;-78
2023/08/22 04:07:57;;;;;;;5.15;3.33;;;16.00;99.20;;;;;;5017866;28;89891;-78
2023/08/22 04:10:22;;;;;;;10.70;3.55;;;15.90;99.20;;;;;;5017672;28;87582;-79
2023/08/22 04:12:48;;;;;;;4.93;3.85;;;15.90;99.30;;;;;;5016951;28;87589;-78
2023/08/22 04:15:14;;;;;;;7.07;3.47;;;15.90;99.60;;;;;;5017399;28;87586;-78
2023/08/22 04:17:42;;;;;;;5.28;3.65;;;15.90;99.30;;;;;;4999432;28;90380;-78
2023/08/22 04:20:10;;;;;;;6.72;4.05;;;15.80;99.30;;;;;;5005263;28;87381;-78
2023/08/22 04:22:36;;;;;;;6.00;2.97;;;15.80;99.50;;;;;;5018859;28;87731;-78
2023/08/22 04:25:04;;;;;;;4.75;2.88;;;15.80;99.40;;;;;;5016506;28;92236;-78
2023/08/22 04:27:30;;;;;;;11.98;3.67;;;15.70;99.40;;;;;;4999843;28;88245;-79
2023/08/22 04:29:55;;;;;;;8.90;3.92;;;15.80;99.50;;;;;;5001668;28;88961;-79
2023/08/22 04:32:21;;;;;;;10.30;4.40;;;15.70;99.50;;;;;;5016162;28;90821;-79
2023/08/22 04:34:47;;;;;;;12.52;4.85;;;15.70;99.70;;;;;;5017909;28;88156;-78
2023/08/22 04:37:13;;;;;;;12.40;4.00;;;15.70;99.80;;;;;;5015451;28;91324;-79
2023/08/22 04:39:38;;;;;;;7.15;3.65;;;15.70;99.70;;;;;;5015626;28;87451;-79
2023/08/22 04:42:04;;;;;;;11.48;4.45;;;15.70;99.70;;;;;;5018760;28;87391;-78
2023/08/22 04:44:30;;;;;;;14.25;4.30;;;15.70;99.70;;;;;;5018304;28;88558;-78
2023/08/22 04:46:56;;;;;;;6.45;4.10;;;15.70;99.90;;;;;;5000081;28;91794;-78
2023/08/22 04:49:22;;;;;;;6.28;4.05;;;15.70;99.90;;;;;;4999516;28;87849;-78
2023/08/22 04:51:47;;;;;;;12.32;3.85;;;15.70;99.90;;;;;;5017618;28;88194;-78
2023/08/22 04:54:13;;;;;;;7.32;4.20;;;15.70;99.90;;;;;;4998307;28;92009;-78
2023/08/22 04:56:39;;;;;;;8.73;4.10;;;15.70;99.90;;;;;;5018487;28;88862;-78
2023/08/22 04:59:04;;;;;;;8.32;3.80;;;15.70;99.90;;;;;;5016799;28;87465;-78
2023/08/22 05:01:30;;;;;;;9.32;4.13;;;15.60;99.90;;;;;;5015813;28;87483;-78
2023/08/22 05:03:55;;;;;;;7.68;3.85;;;15.70;99.90;;;;;;5016626;28;88866;-78
2023/08/22 05:06:21;;;;;;;4.90;3.88;;;15.70;99.90;;;;;;5014482;28;91543;-78
2023/08/22 05:08:46;;;;;;;12.35;4.95;;;15.70;99.80;;;;;;5015560;28;87661;-78
2023/08/22 05:11:12;;;;;;;10.27;5.30;;;15.70;99.90;;;;;;5014595;28;90534;-78
2023/08/22 05:13:38;;;;;;;8.30;5.05;;;15.70;99.90;;;;;;5016504;28;89470;-78
2023/08/22 05:16:03;;;;;;;7.60;4.68;;;15.70;99.90;;;;;;4997397;28;91360;-78
2023/08/22 05:18:29;;;;;;;6.22;4.65;;;15.80;99.90;;;;;;4997945;28;88493;-79
2023/08/22 05:20:55;;;;;;;10.73;4.65;;;15.70;99.90;;;;;;5017302;28;87578;-78
2023/08/22 05:23:20;;;;;;;7.78;5.18;;;15.80;99.90;;;;;;5017190;28;89519;-79
2023/08/22 05:25:46;;;;;;;10.25;4.50;;;15.80;99.90;;;;;;5016423;28;89172;-78
2023/08/22 05:28:12;;;;;;;9.75;4.50;;;15.90;99.90;;;;;;5016933;28;87548;-78
2023/08/22 05:30:38;;;;;;;7.32;4.63;;;15.90;99.90;;;;;;5015692;28;90370;-78
2023/08/22 05:33:05;;;;;;;6.15;4.53;;;15.90;99.90;;;;;;5017597;28;88152;-78
2023/08/22 05:35:30;;;;;;;7.07;5.20;;;15.90;99.90;;;;;;5016232;28;87414;-78
2023/08/22 05:37:56;;;;;;;17.25;5.90;;;16.00;99.90;;;;;;4997753;28;87797;-78
2023/08/22 05:40:21;;;;;;;15.60;5.75;;;16.00;99.90;;;;;;4997406;28;88122;-79
2023/08/22 05:42:47;;;;;;;13.02;5.60;;;16.10;99.90;;;;;;4997232;28;92970;-78
2023/08/22 05:45:13;;;;;;;12.07;5.97;;;16.10;99.90;;;;;;5016449;28;90079;-79
2023/08/22 05:47:39;;;;;;;9.43;6.15;;;16.10;99.90;;;;;;4998088;28;87826;-78
2023/08/22 05:50:05;;;;;;;11.48;5.57;;;16.10;99.90;;;;;;5017704;28;87436;-87
2023/08/22 05:52:31;;;;;;;46.72;11.07;;;16.20;99.90;;;;;;4998562;28;91816;-89
2023/08/22 05:54:57;;;;;;;14.02;7.00;;;16.30;99.90;;;;;;4998061;28;91573;-88
2023/08/22 05:57:22;;;;;;;14.98;6.75;;;16.30;99.90;;;;;;5015599;28;87218;-89
2023/08/22 05:59:52;;;;;;;13.95;7.97;;;16.30;99.90;;;;;;4999292;28;90180;-86
2023/08/22 06:02:17;;;;;;;16.27;7.90;;;16.40;99.90;;;;;;4998361;28;90346;-89
2023/08/22 06:04:45;;;;;;;17.35;8.02;;;16.50;99.90;;;;;;4997904;28;90215;-87
2023/08/22 06:07:11;;;;;;;17.25;8.68;;;16.50;99.90;;;;;;4995522;28;88445;-87
2023/08/22 06:09:36;;;;;;;20.17;8.55;;;16.60;99.90;;;;;;4998459;28;89400;-89
2023/08/22 06:12:02;;;;;;;24.20;9.40;;;16.60;99.90;;;;;;5015583;28;91729;-86
2023/08/22 06:14:28;;;;;;;23.38;10.85;;;16.80;99.90;;;;;;4997258;28;89346;-91
2023/08/22 06:16:54;;;;;;;16.65;10.43;;;16.80;99.90;;;;;;4994257;28;87699;-86
2023/08/22 06:19:20;;;;;;;16.40;11.05;;;16.90;99.90;;;;;;4994542;28;89104;-89
2023/08/22 06:21:45;;;;;;;19.40;10.48;;;17.00;99.90;;;;;;4994110;28;91649;-89
2023/08/22 06:24:11;;;;;;;16.08;10.65;;;17.10;99.90;;;;;;5001774;28;91270;-89
2023/08/22 06:26:37;;;;;;;24.23;10.73;;;17.20;99.90;;;;;;5014680;28;87425;-90
2023/08/22 06:29:03;;;;;;;14.50;10.57;;;17.30;99.90;;;;;;4997087;28;89732;-88
2023/08/22 06:31:29;;;;;;;16.20;10.70;;;17.40;99.90;;;;;;4998105;28;92276;-87
2023/08/22 06:33:55;;;;;;;18.60;10.95;;;17.60;99.90;;;;;;4998052;28;92078;-87
2023/08/22 06:36:21;;;;;;;16.08;10.65;;;17.80;99.90;;;;;;4997427;28;87080;-90
2023/08/22 06:38:46;;;;;;;15.07;11.05;;;17.90;99.90;;;;;;5014167;28;90000;-85
2023/08/22 06:41:12;;;;;;;25.67;12.30;;;18.10;99.90;;;;;;4998191;28;91309;-89
2023/08/22 06:43:38;;;;;;;22.83;11.20;;;18.30;99.90;;;;;;4997388;28;90173;-85
2023/08/22 06:46:03;;;;;;;18.83;11.43;;;18.40;99.90;;;;;;4997058;28;87537;-87
2023/08/22 06:48:29;;;;;;;18.02;10.40;;;18.60;99.90;;;;;;4997213;28;89384;-85
2023/08/22 06:50:55;;;;;;;23.05;11.02;;;18.70;99.90;;;;;;4997727;28;91118;-85
2023/08/22 06:53:21;;;;;;;27.15;10.85;;;18.90;99.90;;;;;;4997125;28;90849;-84
2023/08/22 06:55:47;;;;;;;19.05;9.95;;;19.00;99.70;;;;;;4996152;28;88463;-84
2023/08/22 06:58:13;;;;;;;14.10;9.73;;;19.20;99.60;;;;;;5007280;28;88822;-83
2023/08/22 07:00:40;;;;;;;17.10;10.35;;;19.40;99.40;;;;;;4997315;28;89788;-82
2023/08/22 07:03:05;;;;;;;20.92;9.10;;;19.50;99.00;;;;;;4996636;28;90362;-83
2023/08/22 07:05:34;;;;;;;19.35;9.90;;;19.60;98.80;;;;;;5013871;28;87689;-83
2023/08/22 07:08:00;;;;;;;12.00;8.98;;;19.70;98.50;;;;;;4997575;28;89174;-83
2023/08/22 07:10:26;;;;;;;16.55;9.88;;;19.80;98.30;;;;;;4997223;28;91373;-82
2023/08/22 07:12:52;;;;;;;23.15;11.18;;;19.90;98.30;;;;;;5015864;28;86748;-83
2023/08/22 07:15:18;;;;;;;21.38;10.23;;;19.90;98.20;;;;;;4997431;28;87930;-82
2023/08/22 07:17:44;;;;;;;18.33;10.00;;;19.90;97.80;;;;;;4997532;28;89336;-84
2023/08/22 07:20:09;;;;;;;14.50;10.10;;;20.00;98.00;;;;;;4996603;28;92741;-83
2023/08/22 07:22:35;;;;;;;14.75;10.13;;;20.00;97.70;;;;;;4995563;28;92760;-82
2023/08/22 07:25:01;;;;;;;20.00;11.40;;;20.10;97.60;;;;;;5014697;28;87716;-83
2023/08/22 07:27:26;;;;;;;19.33;9.93;;;20.20;97.40;;;;;;5014936;28;87715;-82
2023/08/22 07:29:52;;;;;;;25.90;10.43;;;20.20;97.40;;;;;;5014703;28;90972;-82
2023/08/22 07:32:21;;;;;;;17.83;10.45;;;20.40;97.20;;;;;;5014859;28;87960;-81
2023/08/22 07:34:49;;;;;;;17.55;9.90;;;20.30;96.90;;;;;;5013613;28;87594;-83
2023/08/22 07:37:16;;;;;;;24.95;11.57;;;20.50;96.80;;;;;;5015279;28;86917;-83
2023/08/22 07:39:42;;;;;;;18.15;9.60;;;20.60;97.00;;;;;;5012811;28;91237;-84
2023/08/22 07:42:08;;;;;;;25.75;10.20;;;20.60;96.20;;;;;;5001340;28;91661;-85
2023/08/22 07:44:34;;;;;;;15.35;9.43;;;20.70;96.10;;;;;;4999121;28;88857;-84
2023/08/22 07:47:02;;;;;;;17.35;9.45;;;20.80;96.40;;;;;;5000085;28;90345;-84
2023/08/22 07:49:28;;;;;;;18.20;9.75;;;20.90;96.50;;;;;;4999520;28;91940;-83
2023/08/22 07:51:54;;;;;;;17.25;9.93;;;21.00;96.10;;;;;;5000640;28;90946;-84
2023/08/22 07:54:19;;;;;;;25.63;11.07;;;21.10;96.10;;;;;;5019737;28;87588;-84
2023/08/22 07:56:45;;;;;;;20.08;10.48;;;21.20;95.10;;;;;;5000639;28;89578;-85
2023/08/22 07:59:13;;;;;;;16.13;9.48;;;21.20;94.80;;;;;;4999704;28;90917;-84
2023/08/22 08:01:39;;;;;;;19.92;9.07;;;21.30;94.90;;;;;;4999741;28;91437;-84
2023/08/22 08:04:05;;;;;;;19.33;9.48;;;21.30;94.50;;;;;;5001190;28;87245;-85
2023/08/22 08:06:35;;;;;;;18.73;8.52;;;21.50;94.20;;;;;;5018431;28;88017;-84
2023/08/22 08:09:02;;;;;;;20.10;9.02;;;21.60;94.40;;;;;;4999963;28;91510;-85
2023/08/22 08:11:29;;;;;;;20.05;8.93;;;21.80;94.30;;;;;;5016105;28;89332;-83
2023/08/22 08:13:55;;;;;;;16.50;8.88;;;21.90;93.60;;;;;;5000404;28;87722;-84
2023/08/22 08:16:21;;;;;;;14.38;8.13;;;22.00;92.90;;;;;;5000447;28;90182;-84
2023/08/22 08:18:46;;;;;;;18.80;8.20;;;22.20;93.70;;;;;;5000080;28;91453;-84
2023/08/22 08:21:12;;;;;;;15.50;7.90;;;22.40;91.70;;;;;;5016392;28;91415;-85
2023/08/22 08:23:38;;;;;;;27.45;8.52;;;22.50;92.00;;;;;;5001885;28;87631;-82
2023/08/22 08:26:04;;;;;;;17.35;7.53;;;22.60;91.50;;;;;;5000568;28;90493;-84
2023/08/22 08:28:30;;;;;;;13.63;7.50;;;22.80;91.10;;;;;;5017461;28;91752;-83
2023/08/22 08:30:56;;;;;;;16.58;7.70;;;22.90;90.70;;;;;;5018421;28;88739;-83
2023/08/22 08:33:22;;;;;;;16.02;7.70;;;23.00;90.50;;;;;;5018742;28;88387;-84
2023/08/22 08:35:48;;;;;;;14.95;7.75;;;23.00;90.40;;;;;;4999999;28;89025;-84
2023/08/22 08:38:14;;;;;;;20.85;6.55;;;23.20;90.30;;;;;;5006893;28;91527;-81
2023/08/22 08:40:42;;;;;;;15.57;7.40;;;23.30;90.20;;;;;;5017053;28;91356;-84
2023/08/22 08:43:08;;;;;;;14.18;7.75;;;23.30;90.10;;;;;;5018121;28;87363;-84
2023/08/22 08:45:35;;;;;;;17.45;6.55;;;23.50;90.40;;;;;;5017657;28;87809;-84
2023/08/22 08:48:03;;;;;;;15.88;7.10;;;23.70;90.10;;;;;;5001129;28;90346;-82
2023/08/22 08:50:31;;;;;;;13.52;6.38;;;23.90;87.80;;;;;;5008956;28;90172;-82
2023/08/22 08:52:56;;;;;;;15.15;6.93;;;24.10;88.00;;;;;;5019122;28;87269;-82
2023/08/22 08:55:22;;;;;;;14.85;6.88;;;24.30;87.60;;;;;;5018272;28;87736;-81
2023/08/22 08:57:48;;;;;;;11.32;6.25;;;24.50;87.60;;;;;;5017915;28;89280;-82
2023/08/22 09:00:17;;;;;;;18.90;6.68;;;24.60;84.70;;;;;;5018002;28;89207;-82
2023/08/22 09:02:44;;;;;;;13.32;6.57;;;24.80;85.30;;;;;;5019940;28;87474;-81
2023/08/22 09:05:11;;;;;;;13.85;6.18;;;25.00;84.40;;;;;;5019186;28;87697;-81
2023/08/22 09:07:37;;;;;;;13.52;6.45;;;25.10;84.00;;;;;;5019168;28;88927;-81
2023/08/22 09:10:04;;;;;;;10.70;6.20;;;25.20;84.40;;;;;;5007196;28;91997;-82
2023/08/22 09:12:37;;;;;;;10.38;5.55;;;25.30;82.20;;;;;;5002453;28;87400;-81
2023/08/22 09:15:07;;;;;;;12.32;6.40;;;25.30;83.40;;;;;;5021938;28;87977;-80
2023/08/22 09:17:33;;;;;;;11.57;5.80;;;25.30;81.00;;;;;;5001419;28;90869;-81
2023/08/22 09:19:59;;;;;;;14.77;6.57;;;25.40;83.00;;;;;;5017719;28;95345;-82
2023/08/22 09:22:30;;;;;;;11.88;5.60;;;25.50;79.60;;;;;;5020822;28;88624;-82
2023/08/22 09:24:57;;;;;;;12.65;5.10;;;25.60;76.90;;;;;;5001558;28;90894;-83
2023/08/22 09:27:25;;;;;;;9.52;3.88;;;25.80;79.50;;;;;;5000803;28;90915;-82
2023/08/22 09:29:51;;;;;;;10.73;4.90;;;25.90;79.40;;;;;;5001341;28;91307;-84
2023/08/22 09:32:19;;;;;;;12.07;5.95;;;26.20;77.50;;;;;;5019031;28;87474;-84
2023/08/22 09:34:53;;;;;;;9.00;5.05;;;26.40;76.80;;;;;;4999848;28;89972;-85
2023/08/22 09:37:32;;;;;;;12.93;4.60;;;26.60;78.10;;;;;;5016394;28;88683;-81
2023/08/22 09:39:59;;;;;;;13.60;4.85;;;26.80;77.30;;;;;;5014965;28;90342;-86
2023/08/22 09:42:31;;;;;;;9.55;5.28;;;27.10;76.40;;;;;;5016665;28;87302;-83
2023/08/22 09:44:57;;;;;;;14.18;4.85;;;27.30;73.60;;;;;;5017215;28;88074;-85
2023/08/22 09:47:29;;;;;;;11.27;4.57;;;27.30;71.70;;;;;;4998226;28;90556;-85
2023/08/22 09:50:05;;;;;;;12.68;5.10;;;27.30;72.80;;;;;;5013246;28;89336;-83
2023/08/22 09:52:33;;;;;;;8.40;4.18;;;27.20;73.10;;;;;;5012025;28;87073;-84
2023/08/22 09:54:59;;;;;;;10.93;4.03;;;27.20;72.20;;;;;;4995273;28;89789;-84
2023/08/22 09:57:26;;;;;;;9.40;4.20;;;27.20;73.20;;;;;;5003373;28;91483;-84
2023/08/22 09:59:52;;;;;;;11.85;4.20;;;27.10;72.80;;;;;;4995208;28;90098;-84
2023/08/22 10:02:19;;;;;;;9.85;4.20;;;27.00;74.60;;;;;;5012419;28;87658;-85
2023/08/22 10:04:46;;;;;;;12.98;4.25;;;27.20;72.90;;;;;;4995126;28;88729;-82
2023/08/22 10:07:12;;;;;;;8.70;3.55;;;27.20;73.70;;;;;;4996314;28;91570;-84
2023/08/22 10:09:43;;;;;;;12.98;4.47;;;27.20;74.00;;;;;;5008604;28;91016;-83
2023/08/22 10:12:17;;;;;;;13.02;4.07;;;27.30;73.30;;;;;;4996954;28;88586;-84
2023/08/22 10:14:48;;;;;;;10.50;4.40;;;27.30;74.30;;;;;;4998650;28;94899;-84
2023/08/22 10:17:14;;;;;;;11.43;4.50;;;27.40;72.10;;;;;;4998228;28;91413;-83
2023/08/22 10:19:44;;;;;;;13.00;4.72;;;27.40;73.30;;;;;;4997278;28;91388;-83
2023/08/22 10:22:11;;;;;;;9.55;5.18;;;27.20;72.40;;;;;;5015101;28;87612;-85
2023/08/22 10:24:40;;;;;;;12.73;5.10;;;27.20;73.50;;;;;;4997710;28;87200;-82
2023/08/22 10:27:09;;;;;;;10.40;5.55;;;27.20;72.90;;;;;;4998045;28;92044;-83
2023/08/22 10:29:44;;;;;;;9.07;4.38;;;27.10;73.40;;;;;;4999006;28;94588;-84
2023/08/22 10:32:13;;;;;;;15.32;5.78;;;27.10;75.30;;;;;;5014602;28;87351;-85
2023/08/22 10:34:38;;;;;;;12.10;5.32;;;27.30;74.70;;;;;;5012988;28;90325;-84
2023/08/22 10:37:15;;;;;;;11.57;5.35;;;27.40;74.80;;;;;;4996642;28;92168;-83
2023/08/22 10:39:43;;;;;;;15.07;4.53;;;27.60;74.40;;;;;;4996552;28;91019;-83
2023/08/22 10:42:16;;;;;;;10.10;4.03;;;27.60;72.10;;;;;;4998496;28;87282;-82
2023/08/22 10:44:42;;;;;;;10.50;4.18;;;27.70;72.30;;;;;;5013925;28;94701;-82
2023/08/22 10:47:15;;;;;;;11.10;3.97;;;27.70;73.00;;;;;;4997254;28;91380;-83
2023/08/22 10:49:41;;;;;;;;;;;27.80;72.60;;;;;;5015457;28;88485;-83
2023/08/22 10:52:08;;;;;;;31.05;6.30;;;27.90;71.30;;;;;;5013360;28;87522;-83
2023/08/22 10:55:05;;;;;;;9.25;3.70;;;27.80;69.00;;;;;;4997485;28;90737;-83
2023/08/22 10:57:32;;;;;;;8.35;3.28;;;27.80;70.60;;;;;;5015781;28;89196;-83
2023/08/22 11:00:12;;;;;;;24.10;5.57;;;27.80;72.10;;;;;;4998095;28;90393;-83
2023/08/22 11:02:40;;;;;;;13.13;3.80;;;27.80;69.40;;;;;;4996727;28;88874;-82
2023/08/22 11:05:11;;;;;;;11.25;4.50;;;27.80;68.60;;;;;;5015076;28;87814;-83
2023/08/22 11:07:54;;;;;;;8.10;3.55;;;27.60;67.80;;;;;;5014994;28;89191;-84
2023/08/22 11:10:21;;;;;;;11.83;3.40;;;27.60;69.30;;;;;;4997693;28;91044;-84
2023/08/22 11:12:49;;;;;;;8.48;3.20;;;27.80;67.20;;;;;;4997737;28;87802;-83
2023/08/22 11:15:15;;;;;;;9.65;3.33;;;28.00;67.60;;;;;;4999912;28;91045;-83
2023/08/22 11:17:43;;;;;;;7.70;2.63;;;28.00;64.90;;;;;;5000901;28;91530;-82
2023/08/22 11:20:13;;;;;;;7.60;2.38;;;28.00;66.70;;;;;;5017992;28;88346;-83
2023/08/22 11:22:43;;;;;;;8.45;3.20;;;27.90;67.30;;;;;;4999189;28;90822;-83
2023/08/22 11:25:11;;;;;;;10.93;2.65;;;27.90;65.50;;;;;;4997885;28;90495;-83
2023/08/22 11:27:37;;;;;;;6.55;2.28;;;27.80;64.80;;;;;;5017879;28;89482;-82
2023/08/22 11:30:04;;;;;;;6.45;1.98;;;27.80;65.70;;;;;;4999724;28;91266;-83
2023/08/22 11:32:32;;;;;;;5.32;1.30;;;27.80;66.10;;;;;;5019538;28;87467;-83
2023/08/22 11:35:00;;;;;;;7.50;1.10;;;27.80;61.70;;;;;;5018794;28;87760;-83
2023/08/22 11:37:27;;;;;;;5.57;1.70;;;27.90;62.60;;;;;;5018161;28;87669;-83
2023/08/22 11:39:54;;;;;;;5.55;1.33;;;27.90;61.40;;;;;;5000015;28;91236;-84
2023/08/22 11:42:20;;;;;;;5.97;1.40;;;27.90;63.20;;;;;;5018664;28;87666;-84
2023/08/22 11:45:04;;;;;;;8.02;1.48;;;28.20;64.90;;;;;;5019009;28;88009;-84
2023/08/22 11:47:53;;;;;;;5.03;2.00;;;28.30;64.00;;;;;;5017953;28;87465;-83
2023/08/22 11:50:28;;;;;;;5.10;1.38;;;28.60;63.60;;;;;;5017978;28;87868;-80
2023/08/22 11:53:13;;;;;;;6.53;1.85;;;28.80;65.50;;;;;;5017505;28;88554;-78
2023/08/22 11:55:41;;;;;;;5.65;1.20;;;29.10;65.40;;;;;;5018201;28;87249;-81
2023/08/22 11:58:11;;;;;;;3.97;0.93;;;29.20;59.60;;;;;;5018436;28;88696;-79
2023/08/22 12:00:37;;;;;;;3.33;0.70;;;29.30;62.20;;;;;;5017728;28;88547;-80
2023/08/22 12:03:05;;;;;;;4.28;1.17;;;29.50;60.70;;;;;;5019380;28;87356;-80
2023/08/22 12:05:44;;;;;;;7.80;1.48;;;29.60;58.80;;;;;;5016783;28;87325;-80
2023/08/22 12:08:13;;;;;;;9.32;1.48;;;29.50;57.70;;;;;;5017386;28;89280;-80
2023/08/22 12:10:46;;;;;;;3.42;1.33;;;29.50;60.70;;;;;;5016923;28;87814;-81
2023/08/22 12:13:13;;;;;;;4.13;1.38;;;29.60;58.30;;;;;;5016626;28;87211;-79
2023/08/22 12:15:40;;;;;;;5.80;1.30;;;29.60;58.30;;;;;;5017054;28;87815;-80
2023/08/22 12:18:07;;;;;;;3.83;0.70;;;29.70;58.80;;;;;;5017001;28;88753;-80
2023/08/22 12:20:33;;;;;;;4.57;0.90;;;29.70;59.10;;;;;;5015651;28;89385;-80
2023/08/22 12:23:00;;;;;;;5.43;1.10;;;29.90;58.40;;;;;;5017537;28;87773;-80
2023/08/22 12:25:26;;;;;;;6.10;0.85;;;30.10;57.80;;;;;;5016469;28;87460;-82
2023/08/22 12:27:54;;;;;;;5.68;0.77;;;30.10;58.40;;;;;;5015506;28;88312;-81
2023/08/22 12:30:20;;;;;;;5.45;0.80;;;30.00;57.80;;;;;;4998475;28;90943;-80
2023/08/22 12:32:46;;;;;;;4.68;0.63;;;30.00;56.60;;;;;;5017978;28;87237;-80
2023/08/22 12:35:12;;;;;;;3.17;0.50;;;30.00;57.30;;;;;;5016462;28;86925;-80
2023/08/22 12:37:39;;;;;;;2.97;0.70;;;30.20;58.60;;;;;;5016477;28;88290;-81
2023/08/22 12:40:10;;;;;;;3.13;0.73;;;30.40;55.40;;;;;;5016892;28;87721;-81